Overview Statistics Trail Chart Weather Telemetry Raw packets
 

This is the latest recevied weather packets stored in our database for station/object KGRR-WX. If no packets are shown the sender has not sent any weather packets the latest 10 day(s).

<< 22 23 24 25 26 27 28 >>
Time Temp. Humidity Pressure Rain* Wind** Luminosity Snow
1788107410 21.67° C 80% 987.6 hPa 0 mm - - -
1788106522 21.67° C 80% 987.6 hPa 0 mm - - -
1788105607 21.67° C 80% 987.6 hPa 0 mm - - -
1788104710 21.67° C 78% 988 hPa 0 mm - - -
1788103812 21.11° C 76% 987.1 hPa 0 mm - - -
1788102910 21.67° C 76% 987.2 hPa 0 mm - - -
1788102006 21.11° C 76% 987.2 hPa 0 mm - - -
1788101110 21.11° C 82% 988.8 hPa 3.3 mm - - -
1788100456 20.56° C 86% 989.3 hPa 3.3 mm - - -
1788059705 20.56° C 85% 989 hPa 0 mm - - -
1788058809 20.56° C 85% 989 hPa 0 mm - - -
1788057909 20.56° C 82% 989.6 hPa 0 mm - - -
1788057005 20.56° C 87% 989.8 hPa 0 mm - - -
1788056109 20.56° C 87% 989.8 hPa 0.25 mm - - -
1788055205 20.56° C 87% 989.8 hPa 0.25 mm - - -
1788054304 21.11° C 79% 989.1 hPa 0 mm - - -
1788053408 21.11° C 79% 989.1 hPa 0 mm - - -
1788052505 20.56° C 79% 989.1 hPa 0 mm - - -
1788051605 20.56° C 79% 989.1 hPa 0 mm - - -
1788050704 21.11° C 77% 990 hPa 0 mm - - -
1788049808 20.56° C 70% 989.8 hPa 0 mm - - -
1788048904 21.11° C 70% 989.8 hPa 0 mm - - -
1788048008 21.67° C 70% 989.8 hPa 0 mm - - -
1788047105 21.67° C 71% 990.6 hPa 0 mm - - -
1788046208 21.67° C 66% 989.6 hPa 0 mm - - -

* Rain latest hour (hover to see other rain measurements)
** Current wind speed in m/s (hover to see current wind gust speed)